sensor_id;sensor_type;location;lat;lon;timestamp;P1;durP1;ratioP1;P2;durP2;ratioP2
75362;SDS011;64122;51.988;5.892;2023-02-22T00:02:19;23.88;;;12.13;;
75362;SDS011;64122;51.988;5.892;2023-02-22T00:04:56;21.30;;;11.07;;
75362;SDS011;64122;51.988;5.892;2023-02-22T00:07:25;23.67;;;12.10;;
75362;SDS011;64122;51.988;5.892;2023-02-22T00:09:55;22.17;;;11.65;;
75362;SDS011;64122;51.988;5.892;2023-02-22T00:12:25;22.90;;;11.65;;
75362;SDS011;64122;51.988;5.892;2023-02-22T00:14:55;23.95;;;11.35;;
75362;SDS011;64122;51.988;5.892;2023-02-22T00:17:25;22.65;;;12.23;;
75362;SDS011;64122;51.988;5.892;2023-02-22T00:19:57;27.08;;;14.30;;
75362;SDS011;64122;51.988;5.892;2023-02-22T00:22:27;28.05;;;12.35;;
75362;SDS011;64122;51.988;5.892;2023-02-22T00:24:56;23.25;;;12.13;;
75362;SDS011;64122;51.988;5.892;2023-02-22T00:27:25;20.08;;;10.65;;
75362;SDS011;64122;51.988;5.892;2023-02-22T00:29:55;21.55;;;11.30;;
75362;SDS011;64122;51.988;5.892;2023-02-22T00:32:25;21.85;;;11.95;;
75362;SDS011;64122;51.988;5.892;2023-02-22T00:34:54;20.08;;;11.07;;
75362;SDS011;64122;51.988;5.892;2023-02-22T00:37:26;21.92;;;11.85;;
75362;SDS011;64122;51.988;5.892;2023-02-22T00:39:56;30.13;;;14.95;;
75362;SDS011;64122;51.988;5.892;2023-02-22T00:42:25;23.25;;;11.85;;
75362;SDS011;64122;51.988;5.892;2023-02-22T00:44:55;25.10;;;12.48;;
75362;SDS011;64122;51.988;5.892;2023-02-22T00:47:24;26.17;;;12.73;;
75362;SDS011;64122;51.988;5.892;2023-02-22T00:49:55;29.55;;;14.32;;
75362;SDS011;64122;51.988;5.892;2023-02-22T00:52:27;28.55;;;14.10;;
75362;SDS011;64122;51.988;5.892;2023-02-22T00:54:57;24.70;;;12.25;;
75362;SDS011;64122;51.988;5.892;2023-02-22T00:57:26;24.38;;;12.32;;
75362;SDS011;64122;51.988;5.892;2023-02-22T00:59:56;30.15;;;15.18;;
75362;SDS011;64122;51.988;5.892;2023-02-22T01:02:25;25.13;;;12.90;;
75362;SDS011;64122;51.988;5.892;2023-02-22T01:04:54;22.55;;;11.70;;
75362;SDS011;64122;51.988;5.892;2023-02-22T01:07:28;25.08;;;12.30;;
75362;SDS011;64122;51.988;5.892;2023-02-22T01:09:57;24.90;;;12.75;;
75362;SDS011;64122;51.988;5.892;2023-02-22T01:12:27;23.88;;;12.00;;
75362;SDS011;64122;51.988;5.892;2023-02-22T01:14:57;23.65;;;12.55;;
75362;SDS011;64122;51.988;5.892;2023-02-22T01:17:28;25.38;;;13.05;;
75362;SDS011;64122;51.988;5.892;2023-02-22T01:19:58;24.23;;;12.60;;
75362;SDS011;64122;51.988;5.892;2023-02-22T01:22:31;24.08;;;12.25;;
75362;SDS011;64122;51.988;5.892;2023-02-22T01:25:00;22.55;;;11.75;;
75362;SDS011;64122;51.988;5.892;2023-02-22T01:27:32;24.42;;;12.60;;
75362;SDS011;64122;51.988;5.892;2023-02-22T01:30:02;26.40;;;13.20;;
75362;SDS011;64122;51.988;5.892;2023-02-22T01:32:34;27.40;;;13.63;;
75362;SDS011;64122;51.988;5.892;2023-02-22T01:35:06;25.50;;;12.68;;
75362;SDS011;64122;51.988;5.892;2023-02-22T01:37:40;26.05;;;12.00;;
75362;SDS011;64122;51.988;5.892;2023-02-22T01:40:13;34.30;;;16.52;;
75362;SDS011;64122;51.988;5.892;2023-02-22T01:42:46;26.33;;;13.38;;
75362;SDS011;64122;51.988;5.892;2023-02-22T01:48:23;29.38;;;14.90;;
75362;SDS011;64122;51.988;5.892;2023-02-22T01:50:58;29.17;;;14.63;;
75362;SDS011;64122;51.988;5.892;2023-02-22T01:53:39;30.23;;;15.68;;
75362;SDS011;64122;51.988;5.892;2023-02-22T01:56:12;28.02;;;13.43;;
75362;SDS011;64122;51.988;5.892;2023-02-22T01:58:43;26.70;;;13.63;;
75362;SDS011;64122;51.988;5.892;2023-02-22T02:01:17;30.70;;;14.15;;
75362;SDS011;64122;51.988;5.892;2023-02-22T02:03:49;46.15;;;22.48;;
75362;SDS011;64122;51.988;5.892;2023-02-22T02:06:19;31.48;;;14.70;;
75362;SDS011;64122;51.988;5.892;2023-02-22T02:08:52;28.67;;;13.52;;
75362;SDS011;64122;51.988;5.892;2023-02-22T02:11:28;34.55;;;15.45;;
75362;SDS011;64122;51.988;5.892;2023-02-22T02:14:00;33.85;;;14.80;;
75362;SDS011;64122;51.988;5.892;2023-02-22T02:16:32;32.00;;;15.45;;
75362;SDS011;64122;51.988;5.892;2023-02-22T02:19:11;34.20;;;15.75;;
75362;SDS011;64122;51.988;5.892;2023-02-22T02:21:56;32.03;;;14.77;;
75362;SDS011;64122;51.988;5.892;2023-02-22T02:28:11;33.38;;;15.02;;
75362;SDS011;64122;51.988;5.892;2023-02-22T02:33:52;37.97;;;15.95;;
75362;SDS011;64122;51.988;5.892;2023-02-22T02:36:25;33.47;;;16.02;;
75362;SDS011;64122;51.988;5.892;2023-02-22T02:39:00;31.13;;;14.75;;
75362;SDS011;64122;51.988;5.892;2023-02-22T02:41:36;34.97;;;14.98;;
75362;SDS011;64122;51.988;5.892;2023-02-22T02:44:13;30.83;;;14.23;;
75362;SDS011;64122;51.988;5.892;2023-02-22T02:46:53;36.35;;;15.02;;
75362;SDS011;64122;51.988;5.892;2023-02-22T02:49:30;31.95;;;15.30;;
75362;SDS011;64122;51.988;5.892;2023-02-22T02:52:05;35.58;;;16.38;;
75362;SDS011;64122;51.988;5.892;2023-02-22T02:54:37;33.53;;;16.58;;
75362;SDS011;64122;51.988;5.892;2023-02-22T02:59:39;34.83;;;15.27;;
75362;SDS011;64122;51.988;5.892;2023-02-22T03:02:12;33.53;;;14.43;;
75362;SDS011;64122;51.988;5.892;2023-02-22T03:04:57;34.10;;;15.10;;
75362;SDS011;64122;51.988;5.892;2023-02-22T03:07:40;44.00;;;21.70;;
75362;SDS011;64122;51.988;5.892;2023-02-22T03:12:55;35.53;;;15.68;;
75362;SDS011;64122;51.988;5.892;2023-02-22T03:15:39;31.88;;;14.45;;
75362;SDS011;64122;51.988;5.892;2023-02-22T03:18:17;32.28;;;14.77;;
75362;SDS011;64122;51.988;5.892;2023-02-22T03:21:00;33.83;;;15.23;;
75362;SDS011;64122;51.988;5.892;2023-02-22T03:23:42;34.30;;;15.45;;
75362;SDS011;64122;51.988;5.892;2023-02-22T03:26:16;30.63;;;13.85;;
75362;SDS011;64122;51.988;5.892;2023-02-22T03:28:54;31.27;;;14.70;;
75362;SDS011;64122;51.988;5.892;2023-02-22T03:31:27;33.80;;;15.55;;
75362;SDS011;64122;51.988;5.892;2023-02-22T03:34:03;30.58;;;14.77;;
75362;SDS011;64122;51.988;5.892;2023-02-22T03:36:39;32.85;;;15.13;;
75362;SDS011;64122;51.988;5.892;2023-02-22T03:39:13;31.15;;;14.40;;
75362;SDS011;64122;51.988;5.892;2023-02-22T03:41:46;32.42;;;14.25;;
75362;SDS011;64122;51.988;5.892;2023-02-22T03:44:23;36.58;;;17.30;;
75362;SDS011;64122;51.988;5.892;2023-02-22T03:46:56;33.00;;;15.45;;
75362;SDS011;64122;51.988;5.892;2023-02-22T03:49:32;32.67;;;15.63;;
75362;SDS011;64122;51.988;5.892;2023-02-22T03:52:08;33.95;;;15.15;;
75362;SDS011;64122;51.988;5.892;2023-02-22T03:54:39;31.20;;;14.90;;
75362;SDS011;64122;51.988;5.892;2023-02-22T03:57:12;35.40;;;15.90;;
75362;SDS011;64122;51.988;5.892;2023-02-22T03:59:51;33.55;;;14.98;;
75362;SDS011;64122;51.988;5.892;2023-02-22T04:02:20;31.55;;;14.57;;
75362;SDS011;64122;51.988;5.892;2023-02-22T04:04:50;29.23;;;14.40;;
75362;SDS011;64122;51.988;5.892;2023-02-22T04:07:22;33.10;;;15.13;;
75362;SDS011;64122;51.988;5.892;2023-02-22T04:09:52;30.35;;;15.13;;
75362;SDS011;64122;51.988;5.892;2023-02-22T04:12:21;32.15;;;15.00;;
75362;SDS011;64122;51.988;5.892;2023-02-22T04:14:56;33.92;;;14.38;;
75362;SDS011;64122;51.988;5.892;2023-02-22T04:17:25;33.92;;;14.93;;
75362;SDS011;64122;51.988;5.892;2023-02-22T04:19:57;34.75;;;15.60;;
75362;SDS011;64122;51.988;5.892;2023-02-22T04:22:36;33.53;;;15.38;;
75362;SDS011;64122;51.988;5.892;2023-02-22T04:25:05;30.90;;;14.50;;
75362;SDS011;64122;51.988;5.892;2023-02-22T04:27:35;35.65;;;15.43;;
75362;SDS011;64122;51.988;5.892;2023-02-22T04:30:05;32.20;;;15.45;;
75362;SDS011;64122;51.988;5.892;2023-02-22T04:32:36;36.22;;;16.05;;
75362;SDS011;64122;51.988;5.892;2023-02-22T04:35:06;34.45;;;15.73;;
75362;SDS011;64122;51.988;5.892;2023-02-22T04:37:39;32.08;;;15.20;;
75362;SDS011;64122;51.988;5.892;2023-02-22T04:40:09;39.72;;;16.00;;
75362;SDS011;64122;51.988;5.892;2023-02-22T04:42:38;34.75;;;15.98;;
75362;SDS011;64122;51.988;5.892;2023-02-22T04:45:10;36.65;;;16.38;;
75362;SDS011;64122;51.988;5.892;2023-02-22T04:47:40;38.00;;;16.33;;
75362;SDS011;64122;51.988;5.892;2023-02-22T04:50:10;36.05;;;15.07;;
75362;SDS011;64122;51.988;5.892;2023-02-22T04:52:43;34.75;;;15.63;;
75362;SDS011;64122;51.988;5.892;2023-02-22T04:55:13;49.92;;;16.25;;
75362;SDS011;64122;51.988;5.892;2023-02-22T04:57:44;35.17;;;16.27;;
75362;SDS011;64122;51.988;5.892;2023-02-22T05:00:16;37.17;;;16.15;;
75362;SDS011;64122;51.988;5.892;2023-02-22T05:02:47;38.17;;;17.85;;
75362;SDS011;64122;51.988;5.892;2023-02-22T05:05:19;41.75;;;18.92;;
75362;SDS011;64122;51.988;5.892;2023-02-22T05:07:51;39.42;;;17.67;;
75362;SDS011;64122;51.988;5.892;2023-02-22T05:10:21;40.15;;;17.45;;
75362;SDS011;64122;51.988;5.892;2023-02-22T05:12:50;45.55;;;19.60;;
75362;SDS011;64122;51.988;5.892;2023-02-22T05:15:20;42.47;;;17.90;;
75362;SDS011;64122;51.988;5.892;2023-02-22T05:17:50;38.22;;;16.88;;
75362;SDS011;64122;51.988;5.892;2023-02-22T05:20:21;39.55;;;17.40;;
75362;SDS011;64122;51.988;5.892;2023-02-22T05:22:55;39.03;;;17.00;;
75362;SDS011;64122;51.988;5.892;2023-02-22T05:25:25;42.90;;;18.77;;
75362;SDS011;64122;51.988;5.892;2023-02-22T05:27:56;44.17;;;17.65;;
75362;SDS011;64122;51.988;5.892;2023-02-22T05:30:28;37.97;;;18.33;;
75362;SDS011;64122;51.988;5.892;2023-02-22T05:32:59;39.40;;;17.52;;
75362;SDS011;64122;51.988;5.892;2023-02-22T05:35:29;42.00;;;18.10;;
75362;SDS011;64122;51.988;5.892;2023-02-22T05:38:01;42.40;;;20.38;;
75362;SDS011;64122;51.988;5.892;2023-02-22T05:40:31;44.92;;;20.35;;
75362;SDS011;64122;51.988;5.892;2023-02-22T05:43:03;45.10;;;19.05;;
75362;SDS011;64122;51.988;5.892;2023-02-22T05:45:33;41.17;;;19.50;;
75362;SDS011;64122;51.988;5.892;2023-02-22T05:48:03;45.67;;;20.00;;
75362;SDS011;64122;51.988;5.892;2023-02-22T05:50:33;47.40;;;19.50;;
75362;SDS011;64122;51.988;5.892;2023-02-22T05:53:05;57.70;;;23.70;;
75362;SDS011;64122;51.988;5.892;2023-02-22T05:55:34;54.13;;;22.30;;
75362;SDS011;64122;51.988;5.892;2023-02-22T05:58:05;61.20;;;25.15;;
75362;SDS011;64122;51.988;5.892;2023-02-22T06:00:34;60.72;;;24.50;;
75362;SDS011;64122;51.988;5.892;2023-02-22T06:03:04;70.88;;;27.38;;
75362;SDS011;64122;51.988;5.892;2023-02-22T06:05:34;65.78;;;27.55;;
75362;SDS011;64122;51.988;5.892;2023-02-22T06:08:07;65.72;;;24.88;;
75362;SDS011;64122;51.988;5.892;2023-02-22T06:10:36;69.75;;;27.58;;
75362;SDS011;64122;51.988;5.892;2023-02-22T06:13:05;70.72;;;25.63;;
75362;SDS011;64122;51.988;5.892;2023-02-22T06:15:35;70.15;;;26.67;;
75362;SDS011;64122;51.988;5.892;2023-02-22T06:18:04;68.85;;;26.88;;
75362;SDS011;64122;51.988;5.892;2023-02-22T06:20:33;73.10;;;28.38;;
75362;SDS011;64122;51.988;5.892;2023-02-22T06:23:02;79.35;;;25.25;;
75362;SDS011;64122;51.988;5.892;2023-02-22T06:25:34;200.65;;;28.40;;
75362;SDS011;64122;51.988;5.892;2023-02-22T06:28:04;255.70;;;29.25;;
75362;SDS011;64122;51.988;5.892;2023-02-22T06:30:33;91.07;;;25.52;;
75362;SDS011;64122;51.988;5.892;2023-02-22T06:33:03;140.25;;;25.55;;
75362;SDS011;64122;51.988;5.892;2023-02-22T06:35:32;150.07;;;26.55;;
75362;SDS011;64122;51.988;5.892;2023-02-22T06:38:04;138.23;;;27.50;;
75362;SDS011;64122;51.988;5.892;2023-02-22T06:40:36;106.18;;;26.02;;
75362;SDS011;64122;51.988;5.892;2023-02-22T06:43:05;95.80;;;26.60;;
75362;SDS011;64122;51.988;5.892;2023-02-22T06:45:35;121.63;;;25.55;;
75362;SDS011;64122;51.988;5.892;2023-02-22T06:48:05;185.90;;;27.02;;
75362;SDS011;64122;51.988;5.892;2023-02-22T06:50:34;94.40;;;24.38;;
75362;SDS011;64122;51.988;5.892;2023-02-22T06:53:03;138.05;;;25.98;;
75362;SDS011;64122;51.988;5.892;2023-02-22T06:55:36;97.40;;;24.85;;
75362;SDS011;64122;51.988;5.892;2023-02-22T06:58:05;138.02;;;27.35;;
75362;SDS011;64122;51.988;5.892;2023-02-22T07:00:35;93.28;;;23.92;;
75362;SDS011;64122;51.988;5.892;2023-02-22T07:03:04;134.85;;;25.30;;
75362;SDS011;64122;51.988;5.892;2023-02-22T07:05:33;134.68;;;25.13;;
75362;SDS011;64122;51.988;5.892;2023-02-22T07:08:03;89.82;;;21.23;;
75362;SDS011;64122;51.988;5.892;2023-02-22T07:10:37;93.55;;;20.58;;
75362;SDS011;64122;51.988;5.892;2023-02-22T07:13:07;104.90;;;21.05;;
75362;SDS011;64122;51.988;5.892;2023-02-22T07:15:36;72.18;;;20.65;;
75362;SDS011;64122;51.988;5.892;2023-02-22T07:18:06;116.22;;;20.30;;
75362;SDS011;64122;51.988;5.892;2023-02-22T07:20:36;95.90;;;22.35;;
75362;SDS011;64122;51.988;5.892;2023-02-22T07:23:06;78.00;;;20.70;;
75362;SDS011;64122;51.988;5.892;2023-02-22T07:25:38;72.70;;;20.63;;
75362;SDS011;64122;51.988;5.892;2023-02-22T07:28:07;90.80;;;21.90;;
75362;SDS011;64122;51.988;5.892;2023-02-22T07:30:38;79.00;;;22.02;;
75362;SDS011;64122;51.988;5.892;2023-02-22T07:33:08;88.60;;;22.35;;
75362;SDS011;64122;51.988;5.892;2023-02-22T07:35:42;115.03;;;18.90;;
75362;SDS011;64122;51.988;5.892;2023-02-22T07:38:14;121.60;;;19.92;;
75362;SDS011;64122;51.988;5.892;2023-02-22T07:40:47;66.82;;;18.63;;
75362;SDS011;64122;51.988;5.892;2023-02-22T07:43:17;75.03;;;21.05;;
75362;SDS011;64122;51.988;5.892;2023-02-22T07:45:48;92.40;;;21.90;;
75362;SDS011;64122;51.988;5.892;2023-02-22T07:48:19;67.32;;;20.30;;
75362;SDS011;64122;51.988;5.892;2023-02-22T07:50:50;63.30;;;18.25;;
75362;SDS011;64122;51.988;5.892;2023-02-22T07:53:20;50.47;;;17.75;;
75362;SDS011;64122;51.988;5.892;2023-02-22T07:55:53;50.80;;;18.75;;
75362;SDS011;64122;51.988;5.892;2023-02-22T07:58:24;53.72;;;17.35;;
75362;SDS011;64122;51.988;5.892;2023-02-22T08:00:54;55.33;;;20.08;;
75362;SDS011;64122;51.988;5.892;2023-02-22T08:03:24;54.13;;;20.63;;
75362;SDS011;64122;51.988;5.892;2023-02-22T08:05:54;63.55;;;20.55;;
75362;SDS011;64122;51.988;5.892;2023-02-22T08:08:25;53.33;;;18.90;;
75362;SDS011;64122;51.988;5.892;2023-02-22T08:10:57;57.72;;;19.05;;
75362;SDS011;64122;51.988;5.892;2023-02-22T08:13:26;55.85;;;19.80;;
75362;SDS011;64122;51.988;5.892;2023-02-22T08:15:55;46.55;;;19.40;;
75362;SDS011;64122;51.988;5.892;2023-02-22T08:18:25;50.08;;;18.30;;
75362;SDS011;64122;51.988;5.892;2023-02-22T08:20:54;46.55;;;19.08;;
75362;SDS011;64122;51.988;5.892;2023-02-22T08:23:24;44.47;;;17.20;;
75362;SDS011;64122;51.988;5.892;2023-02-22T08:25:53;45.78;;;16.33;;
75362;SDS011;64122;51.988;5.892;2023-02-22T08:28:31;48.38;;;18.83;;
75362;SDS011;64122;51.988;5.892;2023-02-22T08:31:00;43.05;;;16.75;;
75362;SDS011;64122;51.988;5.892;2023-02-22T08:33:32;46.05;;;17.88;;
75362;SDS011;64122;51.988;5.892;2023-02-22T08:36:01;40.38;;;16.60;;
75362;SDS011;64122;51.988;5.892;2023-02-22T08:38:31;46.20;;;17.65;;
75362;SDS011;64122;51.988;5.892;2023-02-22T08:41:03;43.63;;;16.88;;
75362;SDS011;64122;51.988;5.892;2023-02-22T08:43:32;43.22;;;16.98;;
75362;SDS011;64122;51.988;5.892;2023-02-22T08:46:02;42.63;;;17.77;;
75362;SDS011;64122;51.988;5.892;2023-02-22T08:48:31;44.35;;;17.77;;
75362;SDS011;64122;51.988;5.892;2023-02-22T08:51:01;48.65;;;18.48;;
75362;SDS011;64122;51.988;5.892;2023-02-22T08:53:30;45.45;;;17.30;;
75362;SDS011;64122;51.988;5.892;2023-02-22T08:55:59;47.88;;;17.52;;
75362;SDS011;64122;51.988;5.892;2023-02-22T08:58:32;43.60;;;17.48;;
75362;SDS011;64122;51.988;5.892;2023-02-22T09:01:01;45.17;;;16.80;;
75362;SDS011;64122;51.988;5.892;2023-02-22T09:03:30;45.03;;;17.58;;
75362;SDS011;64122;51.988;5.892;2023-02-22T09:06:00;44.05;;;18.58;;
75362;SDS011;64122;51.988;5.892;2023-02-22T09:08:29;51.25;;;21.85;;
75362;SDS011;64122;51.988;5.892;2023-02-22T09:10:58;51.63;;;20.95;;
75362;SDS011;64122;51.988;5.892;2023-02-22T09:13:30;55.47;;;21.45;;
75362;SDS011;64122;51.988;5.892;2023-02-22T09:16:00;52.80;;;22.95;;
75362;SDS011;64122;51.988;5.892;2023-02-22T09:18:29;56.90;;;22.35;;
75362;SDS011;64122;51.988;5.892;2023-02-22T09:20:58;52.03;;;22.35;;
75362;SDS011;64122;51.988;5.892;2023-02-22T09:23:27;53.97;;;20.52;;
75362;SDS011;64122;51.988;5.892;2023-02-22T09:25:57;52.03;;;21.02;;
75362;SDS011;64122;51.988;5.892;2023-02-22T09:28:27;45.83;;;18.67;;
75362;SDS011;64122;51.988;5.892;2023-02-22T09:30:59;46.78;;;18.73;;
75362;SDS011;64122;51.988;5.892;2023-02-22T09:33:28;48.10;;;19.88;;
75362;SDS011;64122;51.988;5.892;2023-02-22T09:35:57;52.38;;;20.65;;
75362;SDS011;64122;51.988;5.892;2023-02-22T09:38:27;55.40;;;21.95;;
75362;SDS011;64122;51.988;5.892;2023-02-22T09:41:00;52.90;;;21.80;;
75362;SDS011;64122;51.988;5.892;2023-02-22T09:43:43;52.58;;;20.73;;
75362;SDS011;64122;51.988;5.892;2023-02-22T09:46:20;52.72;;;21.75;;
75362;SDS011;64122;51.988;5.892;2023-02-22T09:48:57;50.08;;;20.88;;
75362;SDS011;64122;51.988;5.892;2023-02-22T09:51:32;52.20;;;20.70;;
75362;SDS011;64122;51.988;5.892;2023-02-22T09:54:10;49.60;;;20.80;;
75362;SDS011;64122;51.988;5.892;2023-02-22T09:56:45;47.50;;;20.95;;
75362;SDS011;64122;51.988;5.892;2023-02-22T09:59:20;53.03;;;20.98;;
75362;SDS011;64122;51.988;5.892;2023-02-22T10:01:55;55.10;;;22.02;;
75362;SDS011;64122;51.988;5.892;2023-02-22T10:04:35;51.80;;;20.45;;
75362;SDS011;64122;51.988;5.892;2023-02-22T10:07:12;46.40;;;20.13;;
75362;SDS011;64122;51.988;5.892;2023-02-22T10:09:46;46.42;;;19.80;;
75362;SDS011;64122;51.988;5.892;2023-02-22T10:12:22;44.80;;;19.58;;
75362;SDS011;64122;51.988;5.892;2023-02-22T10:15:12;47.05;;;19.88;;
75362;SDS011;64122;51.988;5.892;2023-02-22T10:17:55;50.55;;;20.73;;
75362;SDS011;64122;51.988;5.892;2023-02-22T10:20:35;40.15;;;19.23;;
75362;SDS011;64122;51.988;5.892;2023-02-22T10:23:12;44.20;;;19.92;;
75362;SDS011;64122;51.988;5.892;2023-02-22T10:25:51;47.78;;;21.77;;
75362;SDS011;64122;51.988;5.892;2023-02-22T10:28:25;43.50;;;19.05;;
75362;SDS011;64122;51.988;5.892;2023-02-22T10:31:03;40.88;;;18.42;;
75362;SDS011;64122;51.988;5.892;2023-02-22T10:33:36;41.92;;;18.15;;
75362;SDS011;64122;51.988;5.892;2023-02-22T10:36:10;43.78;;;19.17;;
75362;SDS011;64122;51.988;5.892;2023-02-22T10:38:47;39.13;;;17.50;;
75362;SDS011;64122;51.988;5.892;2023-02-22T10:41:23;39.53;;;18.70;;
75362;SDS011;64122;51.988;5.892;2023-02-22T10:43:56;38.03;;;17.73;;
75362;SDS011;64122;51.988;5.892;2023-02-22T10:46:29;42.42;;;17.98;;
75362;SDS011;64122;51.988;5.892;2023-02-22T10:49:01;39.28;;;18.05;;
75362;SDS011;64122;51.988;5.892;2023-02-22T10:51:32;42.20;;;19.33;;
75362;SDS011;64122;51.988;5.892;2023-02-22T10:54:13;36.20;;;17.25;;
75362;SDS011;64122;51.988;5.892;2023-02-22T10:56:51;33.50;;;17.10;;
75362;SDS011;64122;51.988;5.892;2023-02-22T10:59:26;35.72;;;16.90;;
75362;SDS011;64122;51.988;5.892;2023-02-22T11:02:00;38.38;;;16.60;;
75362;SDS011;64122;51.988;5.892;2023-02-22T11:04:47;33.72;;;15.52;;
75362;SDS011;64122;51.988;5.892;2023-02-22T11:07:19;34.10;;;15.88;;
75362;SDS011;64122;51.988;5.892;2023-02-22T11:09:53;32.20;;;15.65;;
75362;SDS011;64122;51.988;5.892;2023-02-22T11:12:27;36.58;;;16.23;;
75362;SDS011;64122;51.988;5.892;2023-02-22T11:15:15;32.63;;;16.10;;
75362;SDS011;64122;51.988;5.892;2023-02-22T11:17:57;34.40;;;16.52;;
75362;SDS011;64122;51.988;5.892;2023-02-22T11:20:27;34.70;;;17.10;;
75362;SDS011;64122;51.988;5.892;2023-02-22T11:23:00;35.50;;;17.10;;
75362;SDS011;64122;51.988;5.892;2023-02-22T11:25:33;34.00;;;16.42;;
75362;SDS011;64122;51.988;5.892;2023-02-22T11:28:07;34.13;;;16.27;;
75362;SDS011;64122;51.988;5.892;2023-02-22T11:30:39;35.10;;;16.60;;
75362;SDS011;64122;51.988;5.892;2023-02-22T11:33:15;36.65;;;17.25;;
75362;SDS011;64122;51.988;5.892;2023-02-22T11:35:49;36.33;;;16.65;;
75362;SDS011;64122;51.988;5.892;2023-02-22T11:38:21;34.00;;;16.30;;
75362;SDS011;64122;51.988;5.892;2023-02-22T11:41:03;34.83;;;16.48;;
75362;SDS011;64122;51.988;5.892;2023-02-22T11:43:35;32.53;;;16.33;;
75362;SDS011;64122;51.988;5.892;2023-02-22T11:46:05;37.40;;;18.38;;
75362;SDS011;64122;51.988;5.892;2023-02-22T11:48:43;37.58;;;16.38;;
75362;SDS011;64122;51.988;5.892;2023-02-22T11:51:31;37.38;;;17.02;;
75362;SDS011;64122;51.988;5.892;2023-02-22T11:57:04;34.10;;;16.42;;
75362;SDS011;64122;51.988;5.892;2023-02-22T11:59:50;37.03;;;17.02;;
75362;SDS011;64122;51.988;5.892;2023-02-22T12:02:39;35.97;;;18.00;;
75362;SDS011;64122;51.988;5.892;2023-02-22T12:05:25;37.70;;;18.58;;
75362;SDS011;64122;51.988;5.892;2023-02-22T12:08:10;36.75;;;15.88;;
75362;SDS011;64122;51.988;5.892;2023-02-22T12:10:51;36.28;;;15.88;;
75362;SDS011;64122;51.988;5.892;2023-02-22T12:13:41;31.98;;;15.60;;
75362;SDS011;64122;51.988;5.892;2023-02-22T12:16:23;28.15;;;14.02;;
75362;SDS011;64122;51.988;5.892;2023-02-22T12:19:10;34.72;;;15.82;;
75362;SDS011;64122;51.988;5.892;2023-02-22T12:21:51;31.90;;;15.43;;
75362;SDS011;64122;51.988;5.892;2023-02-22T12:24:26;32.28;;;15.88;;
75362;SDS011;64122;51.988;5.892;2023-02-22T12:27:02;30.05;;;14.88;;
75362;SDS011;64122;51.988;5.892;2023-02-22T12:29:37;27.90;;;15.35;;
75362;SDS011;64122;51.988;5.892;2023-02-22T12:32:13;50.67;;;26.95;;
75362;SDS011;64122;51.988;5.892;2023-02-22T12:34:46;27.50;;;14.50;;
75362;SDS011;64122;51.988;5.892;2023-02-22T12:37:23;27.52;;;14.75;;
75362;SDS011;64122;51.988;5.892;2023-02-22T12:39:58;31.17;;;14.32;;
75362;SDS011;64122;51.988;5.892;2023-02-22T12:42:44;31.25;;;15.00;;
75362;SDS011;64122;51.988;5.892;2023-02-22T12:45:20;25.00;;;13.23;;
75362;SDS011;64122;51.988;5.892;2023-02-22T12:47:58;30.73;;;15.88;;
75362;SDS011;64122;51.988;5.892;2023-02-22T12:50:35;26.88;;;14.52;;
75362;SDS011;64122;51.988;5.892;2023-02-22T12:53:11;32.30;;;14.27;;
75362;SDS011;64122;51.988;5.892;2023-02-22T12:55:49;33.50;;;16.98;;
75362;SDS011;64122;51.988;5.892;2023-02-22T12:58:26;25.65;;;13.40;;
75362;SDS011;64122;51.988;5.892;2023-02-22T13:01:00;26.73;;;14.50;;
75362;SDS011;64122;51.988;5.892;2023-02-22T13:03:34;27.77;;;14.10;;
75362;SDS011;64122;51.988;5.892;2023-02-22T13:06:10;28.38;;;14.98;;
75362;SDS011;64122;51.988;5.892;2023-02-22T13:08:51;28.58;;;14.68;;
75362;SDS011;64122;51.988;5.892;2023-02-22T13:11:31;33.13;;;15.07;;
75362;SDS011;64122;51.988;5.892;2023-02-22T13:14:14;26.80;;;14.82;;
75362;SDS011;64122;51.988;5.892;2023-02-22T13:16:53;25.45;;;14.15;;
75362;SDS011;64122;51.988;5.892;2023-02-22T13:19:32;29.40;;;15.52;;
75362;SDS011;64122;51.988;5.892;2023-02-22T13:22:09;27.13;;;15.07;;
75362;SDS011;64122;51.988;5.892;2023-02-22T13:24:59;27.20;;;14.13;;
75362;SDS011;64122;51.988;5.892;2023-02-22T13:27:36;27.08;;;14.77;;
75362;SDS011;64122;51.988;5.892;2023-02-22T13:30:19;26.65;;;14.73;;
75362;SDS011;64122;51.988;5.892;2023-02-22T13:35:53;26.10;;;15.07;;
75362;SDS011;64122;51.988;5.892;2023-02-22T13:38:36;28.52;;;13.75;;
75362;SDS011;64122;51.988;5.892;2023-02-22T13:41:32;26.13;;;13.93;;
75362;SDS011;64122;51.988;5.892;2023-02-22T13:47:47;25.35;;;12.48;;
75362;SDS011;64122;51.988;5.892;2023-02-22T13:53:46;46.13;;;25.27;;
75362;SDS011;64122;51.988;5.892;2023-02-22T13:56:22;26.90;;;13.07;;
75362;SDS011;64122;51.988;5.892;2023-02-22T13:58:59;25.02;;;12.68;;
75362;SDS011;64122;51.988;5.892;2023-02-22T14:01:39;23.50;;;11.82;;
75362;SDS011;64122;51.988;5.892;2023-02-22T14:04:18;24.92;;;13.02;;
75362;SDS011;64122;51.988;5.892;2023-02-22T14:13:13;23.95;;;13.15;;
75362;SDS011;64122;51.988;5.892;2023-02-22T14:18:59;26.20;;;13.55;;
75362;SDS011;64122;51.988;5.892;2023-02-22T14:21:31;25.63;;;13.40;;
75362;SDS011;64122;51.988;5.892;2023-02-22T14:24:06;23.92;;;13.02;;
75362;SDS011;64122;51.988;5.892;2023-02-22T14:26:37;27.65;;;13.02;;
75362;SDS011;64122;51.988;5.892;2023-02-22T14:29:15;26.60;;;13.88;;
75362;SDS011;64122;51.988;5.892;2023-02-22T14:34:43;32.28;;;17.35;;
75362;SDS011;64122;51.988;5.892;2023-02-22T14:37:20;25.60;;;13.98;;
75362;SDS011;64122;51.988;5.892;2023-02-22T14:39:56;26.40;;;14.23;;
75362;SDS011;64122;51.988;5.892;2023-02-22T14:42:38;27.92;;;13.55;;
75362;SDS011;64122;51.988;5.892;2023-02-22T14:45:15;23.73;;;14.32;;
75362;SDS011;64122;51.988;5.892;2023-02-22T14:47:54;24.52;;;13.50;;
75362;SDS011;64122;51.988;5.892;2023-02-22T14:50:32;27.60;;;13.63;;
75362;SDS011;64122;51.988;5.892;2023-02-22T14:53:17;24.50;;;13.38;;
75362;SDS011;64122;51.988;5.892;2023-02-22T14:55:53;23.25;;;12.52;;
75362;SDS011;64122;51.988;5.892;2023-02-22T14:58:28;22.67;;;12.40;;
75362;SDS011;64122;51.988;5.892;2023-02-22T15:01:15;22.63;;;12.43;;
75362;SDS011;64122;51.988;5.892;2023-02-22T15:03:56;23.77;;;12.95;;
75362;SDS011;64122;51.988;5.892;2023-02-22T15:06:43;26.42;;;13.88;;
75362;SDS011;64122;51.988;5.892;2023-02-22T15:09:15;21.42;;;11.50;;
75362;SDS011;64122;51.988;5.892;2023-02-22T15:11:49;25.25;;;13.57;;
75362;SDS011;64122;51.988;5.892;2023-02-22T15:14:30;27.05;;;14.50;;
75362;SDS011;64122;51.988;5.892;2023-02-22T15:17:04;27.40;;;14.30;;
75362;SDS011;64122;51.988;5.892;2023-02-22T15:19:40;25.88;;;13.45;;
75362;SDS011;64122;51.988;5.892;2023-02-22T15:22:17;23.08;;;12.68;;
75362;SDS011;64122;51.988;5.892;2023-02-22T15:24:54;26.33;;;14.20;;
75362;SDS011;64122;51.988;5.892;2023-02-22T15:27:27;33.17;;;17.70;;
75362;SDS011;64122;51.988;5.892;2023-02-22T15:30:06;25.65;;;13.75;;
75362;SDS011;64122;51.988;5.892;2023-02-22T15:32:44;25.15;;;14.43;;
75362;SDS011;64122;51.988;5.892;2023-02-22T15:35:17;26.55;;;15.55;;
75362;SDS011;64122;51.988;5.892;2023-02-22T15:37:57;67.13;;;37.95;;
75362;SDS011;64122;51.988;5.892;2023-02-22T15:40:28;24.05;;;14.05;;